createdAt,value
2017-03-31T00:00:38.389Z,16.78
2017-03-31T00:01:36.903Z,16.03
2017-03-31T00:02:35.393Z,18.33
2017-03-31T00:03:34.652Z,14.80
2017-03-31T00:04:33.148Z,18.85
2017-03-31T00:05:32.066Z,16.33
2017-03-31T00:06:30.576Z,15.58
2017-03-31T00:07:29.866Z,15.95
2017-03-31T00:08:29.112Z,15.55
2017-03-31T00:09:28.392Z,16.72
2017-03-31T00:10:26.917Z,22.23
2017-03-31T00:11:26.919Z,22.75
2017-03-31T00:12:25.381Z,22.82
2017-03-31T00:13:24.604Z,23.47
2017-03-31T00:14:23.105Z,16.25
2017-03-31T00:15:22.333Z,23.90
2017-03-31T00:16:21.612Z,17.88
2017-03-31T00:17:21.214Z,17.27
2017-03-31T00:18:19.793Z,16.82
2017-03-31T00:19:18.280Z,21.82
2017-03-31T00:20:17.527Z,18.15
2017-03-31T00:21:16.780Z,15.25
2017-03-31T00:22:16.054Z,16.80
2017-03-31T00:23:15.605Z,24.28
2017-03-31T00:24:14.076Z,17.90
2017-03-31T00:25:12.561Z,22.85
2017-03-31T00:26:11.851Z,24.53
2017-03-31T00:27:11.077Z,18.92
2017-03-31T00:28:10.318Z,18.85
2017-03-31T00:29:10.060Z,19.97
2017-03-31T00:30:08.532Z,24.22
2017-03-31T00:31:07.814Z,26.22
2017-03-31T00:32:07.037Z,21.00
2017-03-31T00:33:06.299Z,20.20
2017-03-31T00:34:05.561Z,17.68
2017-03-31T00:35:05.156Z,19.90
2017-03-31T00:36:04.432Z,16.48
2017-03-31T00:37:03.738Z,17.30
2017-03-31T00:38:02.260Z,16.92
2017-03-31T00:39:01.526Z,16.02
2017-03-31T00:39:59.999Z,21.47
2017-03-31T00:40:59.630Z,19.12
2017-03-31T00:41:58.900Z,16.65
2017-03-31T00:42:57.388Z,20.27
2017-03-31T00:43:55.880Z,16.25
2017-03-31T00:44:54.360Z,16.55
2017-03-31T00:45:53.615Z,16.60
2017-03-31T00:46:53.187Z,18.57
2017-03-31T00:47:51.658Z,20.30
2017-03-31T00:48:50.207Z,14.67
2017-03-31T00:49:48.688Z,19.45
2017-03-31T00:50:47.173Z,21.53
2017-03-31T00:51:46.435Z,21.30
2017-03-31T00:52:45.186Z,17.68
2017-03-31T00:53:43.743Z,18.62
2017-03-31T00:54:42.224Z,19.45
2017-03-31T00:55:40.736Z,19.68
2017-03-31T00:56:39.984Z,18.22
2017-03-31T00:57:38.477Z,17.92
2017-03-31T00:58:38.028Z,16.82
2017-03-31T00:59:37.282Z,18.35
2017-03-31T01:00:36.549Z,19.75
2017-03-31T01:01:35.815Z,17.60
2017-03-31T01:02:34.360Z,17.82
2017-03-31T01:03:32.812Z,22.20
2017-03-31T01:04:31.577Z,19.72
2017-03-31T01:05:30.163Z,24.40
2017-03-31T01:06:29.443Z,21.68
2017-03-31T01:07:27.948Z,22.75
2017-03-31T01:08:27.208Z,20.77
2017-03-31T01:09:27.210Z,20.92
2017-03-31T01:10:26.776Z,20.57
2017-03-31T01:11:26.031Z,21.55
2017-03-31T01:12:24.496Z,22.55
2017-03-31T01:13:22.984Z,22.07
2017-03-31T01:14:21.458Z,20.08
2017-03-31T01:15:20.146Z,20.67
2017-03-31T01:16:18.920Z,20.28
2017-03-31T01:17:17.444Z,21.07
2017-03-31T01:18:15.939Z,18.43
2017-03-31T01:19:15.184Z,23.23
2017-03-31T01:20:14.417Z,22.95
2017-03-31T01:21:13.653Z,19.80
2017-03-31T01:22:13.273Z,19.83
2017-03-31T01:23:11.741Z,20.58
2017-03-31T01:24:10.205Z,19.92
2017-03-31T01:25:09.433Z,19.13
2017-03-31T01:26:07.904Z,24.83
2017-03-31T01:27:07.141Z,19.62
2017-03-31T01:28:05.948Z,17.03
2017-03-31T01:29:05.221Z,20.22
2017-03-31T01:30:04.509Z,21.35
2017-03-31T01:31:03.760Z,17.57
2017-03-31T01:32:02.245Z,21.98
2017-03-31T01:33:00.712Z,24.30
2017-03-31T01:33:59.541Z,20.18
2017-03-31T01:34:58.773Z,17.77
2017-03-31T01:35:57.298Z,19.93
2017-03-31T01:36:55.807Z,21.48
2017-03-31T01:37:55.063Z,19.07
2017-03-31T01:38:53.556Z,18.72
2017-03-31T01:39:52.396Z,20.02
2017-03-31T01:40:50.892Z,19.27
2017-03-31T01:41:49.409Z,18.67
2017-03-31T01:42:48.668Z,17.83
2017-03-31T01:43:47.923Z,18.02
2017-03-31T01:44:46.394Z,22.20
2017-03-31T01:45:45.227Z,21.12
2017-03-31T01:46:43.727Z,27.70
2017-03-31T01:47:42.229Z,19.95
2017-03-31T01:48:40.735Z,20.17
2017-03-31T01:49:40.016Z,21.37
2017-03-31T01:50:38.500Z,21.52
2017-03-31T01:51:37.348Z,27.92
2017-03-31T01:52:35.825Z,27.98
2017-03-31T01:53:35.072Z,25.65
2017-03-31T01:54:33.574Z,25.32
2017-03-31T01:55:32.079Z,27.42
2017-03-31T01:56:31.353Z,26.47
2017-03-31T01:57:30.228Z,23.90
2017-03-31T01:58:28.794Z,20.92
2017-03-31T01:59:27.288Z,23.72
2017-03-31T02:00:25.761Z,23.60
2017-03-31T02:01:24.308Z,25.25
2017-03-31T02:02:23.576Z,25.83
2017-03-31T02:03:23.129Z,30.85
2017-03-31T02:04:22.649Z,23.65
2017-03-31T02:05:21.916Z,24.50
2017-03-31T02:06:20.411Z,26.93
2017-03-31T02:07:19.657Z,27.17
2017-03-31T02:08:19.071Z,26.22
2017-03-31T02:09:18.730Z,24.12
2017-03-31T02:10:17.255Z,23.97
2017-03-31T02:11:15.735Z,20.12
2017-03-31T02:12:14.209Z,22.90
2017-03-31T02:13:12.695Z,30.82
2017-03-31T02:14:11.200Z,31.35
2017-03-31T02:15:10.756Z,29.58
2017-03-31T02:16:09.246Z,30.08
2017-03-31T02:17:08.496Z,20.32
2017-03-31T02:18:06.999Z,26.85
2017-03-31T02:19:06.260Z,23.73
2017-03-31T02:20:04.744Z,33.62
2017-03-31T02:21:04.264Z,24.33
2017-03-31T02:22:02.763Z,24.65
2017-03-31T02:23:01.990Z,29.02
2017-03-31T02:24:01.228Z,26.98
2017-03-31T02:24:59.696Z,22.45
2017-03-31T02:25:58.517Z,29.40
2017-03-31T02:26:58.162Z,31.85
2017-03-31T02:27:57.405Z,24.42
2017-03-31T02:28:55.867Z,29.98
2017-03-31T02:29:55.119Z,25.73
2017-03-31T02:30:53.629Z,22.67
2017-03-31T02:31:52.880Z,24.83
2017-03-31T02:32:52.418Z,24.73
2017-03-31T02:33:51.659Z,28.22
2017-03-31T02:34:50.186Z,30.42
2017-03-31T02:35:48.681Z,33.17
2017-03-31T02:36:47.935Z,22.92
2017-03-31T02:37:47.162Z,28.10
2017-03-31T02:38:46.900Z,25.17
2017-03-31T02:39:45.353Z,24.50
2017-03-31T02:40:43.828Z,25.17
2017-03-31T02:41:42.295Z,24.92
2017-03-31T02:42:40.810Z,24.02
2017-03-31T02:43:40.118Z,24.20
2017-03-31T02:44:38.888Z,26.40
2017-03-31T02:45:37.348Z,28.85
2017-03-31T02:46:35.870Z,32.88
2017-03-31T02:47:35.144Z,32.30
2017-03-31T02:48:33.603Z,30.27
2017-03-31T02:49:32.080Z,30.38
2017-03-31T02:50:30.936Z,31.57
2017-03-31T02:51:29.411Z,32.15
2017-03-31T02:52:27.877Z,29.63
2017-03-31T02:53:26.368Z,35.02
2017-03-31T02:54:24.862Z,33.20
2017-03-31T02:55:23.350Z,36.50
2017-03-31T02:56:22.129Z,29.45
2017-03-31T02:57:20.617Z,27.13
2017-03-31T02:58:19.064Z,26.37
2017-03-31T02:59:18.306Z,24.53
2017-03-31T03:00:17.559Z,23.55
2017-03-31T03:01:16.807Z,24.97
2017-03-31T03:02:15.593Z,34.07
2017-03-31T03:03:14.048Z,28.28
2017-03-31T03:04:13.297Z,28.47
2017-03-31T03:05:11.811Z,32.82
2017-03-31T03:06:11.820Z,24.88
2017-03-31T03:07:10.331Z,25.35
2017-03-31T03:08:09.956Z,33.85
2017-03-31T03:09:08.424Z,37.02
2017-03-31T03:10:07.649Z,29.87
2017-03-31T03:11:06.156Z,26.98
2017-03-31T03:12:04.660Z,36.25
2017-03-31T03:13:03.142Z,34.48
2017-03-31T03:14:02.709Z,31.85
2017-03-31T03:15:01.196Z,33.83
2017-03-31T03:15:59.665Z,35.67
2017-03-31T03:16:58.187Z,25.23
2017-03-31T03:17:56.676Z,33.32
2017-03-31T03:18:55.940Z,25.38
2017-03-31T03:19:54.809Z,24.45
2017-03-31T03:20:53.284Z,23.05
2017-03-31T03:21:51.922Z,28.45
2017-03-31T03:22:50.418Z,26.52
2017-03-31T03:23:48.886Z,27.13
2017-03-31T03:24:47.356Z,32.57
2017-03-31T03:25:46.213Z,33.13
2017-03-31T03:26:45.468Z,29.47
2017-03-31T03:27:44.032Z,26.42
2017-03-31T03:28:43.285Z,27.45
2017-03-31T03:29:41.790Z,35.52
2017-03-31T03:30:40.295Z,27.98
2017-03-31T03:31:39.872Z,27.50
2017-03-31T03:32:38.344Z,23.57
2017-03-31T03:33:36.848Z,28.47
2017-03-31T03:34:35.343Z,36.88
2017-03-31T03:35:34.614Z,30.75
2017-03-31T03:36:33.104Z,32.72
2017-03-31T03:37:31.881Z,31.08
2017-03-31T03:38:31.128Z,30.48
2017-03-31T03:39:30.387Z,31.83
2017-03-31T03:40:28.969Z,25.45
2017-03-31T03:41:28.265Z,29.77
2017-03-31T03:42:27.606Z,29.38
2017-03-31T03:43:26.479Z,29.65
2017-03-31T03:44:24.985Z,29.18
2017-03-31T03:45:24.231Z,27.83
2017-03-31T03:46:22.762Z,31.72
2017-03-31T03:47:22.100Z,32.63
2017-03-31T03:48:20.603Z,26.43
2017-03-31T03:49:19.393Z,24.30
2017-03-31T03:50:17.902Z,31.90
2017-03-31T03:51:17.168Z,32.25
2017-03-31T03:52:15.637Z,39.57
2017-03-31T03:53:14.092Z,25.45
2017-03-31T03:54:12.574Z,35.20
2017-03-31T03:55:12.145Z,30.73
2017-03-31T03:56:10.645Z,31.18
2017-03-31T03:57:09.897Z,26.45
2017-03-31T03:58:08.376Z,27.55
2017-03-31T03:59:07.615Z,30.20
2017-03-31T04:00:06.097Z,33.38
2017-03-31T04:01:04.973Z,33.43
2017-03-31T04:02:03.462Z,30.22
2017-03-31T04:03:01.938Z,27.20
2017-03-31T04:04:01.204Z,28.80
2017-03-31T04:05:00.500Z,30.95
2017-03-31T04:05:59.097Z,43.27
2017-03-31T04:06:59.762Z,29.23
2017-03-31T04:07:58.299Z,29.57
2017-03-31T04:08:56.877Z,31.48
2017-03-31T04:09:55.364Z,34.73
2017-03-31T04:10:54.633Z,27.22
2017-03-31T04:11:53.100Z,29.20
2017-03-31T04:12:52.691Z,39.18
2017-03-31T04:13:51.165Z,30.67
2017-03-31T04:14:49.643Z,36.52
2017-03-31T04:15:48.101Z,36.52
2017-03-31T04:16:48.984Z,35.80
2017-03-31T04:17:47.480Z,36.07
2017-03-31T04:18:46.352Z,30.90
2017-03-31T04:19:45.609Z,29.07
2017-03-31T04:20:44.897Z,31.22
2017-03-31T04:21:44.186Z,32.93
2017-03-31T04:22:42.647Z,29.52
2017-03-31T04:23:41.131Z,28.45
2017-03-31T04:24:39.903Z,29.93
2017-03-31T04:25:39.168Z,33.50
2017-03-31T04:26:37.672Z,33.35
2017-03-31T04:27:36.931Z,41.47
2017-03-31T04:28:36.223Z,39.73
2017-03-31T04:29:35.542Z,40.13
2017-03-31T04:30:35.077Z,31.72
2017-03-31T04:31:33.574Z,37.00
2017-03-31T04:32:32.821Z,36.33
2017-03-31T04:33:31.299Z,31.32
2017-03-31T04:34:30.558Z,38.05
2017-03-31T04:35:29.889Z,30.05
2017-03-31T04:36:29.451Z,33.97
2017-03-31T04:37:27.952Z,29.57
2017-03-31T04:38:27.201Z,32.08
2017-03-31T04:39:25.740Z,31.05
2017-03-31T04:40:24.287Z,39.60
2017-03-31T04:41:23.575Z,43.12
2017-03-31T04:42:22.988Z,40.55
2017-03-31T04:43:21.535Z,34.12
2017-03-31T04:44:20.046Z,34.25
2017-03-31T04:45:18.587Z,46.43
2017-03-31T04:46:17.129Z,37.22
2017-03-31T04:47:16.432Z,44.50
2017-03-31T04:48:16.156Z,31.23
2017-03-31T04:49:15.400Z,35.08
2017-03-31T04:50:13.877Z,35.98
2017-03-31T04:51:13.125Z,30.37
2017-03-31T04:52:11.592Z,40.52
2017-03-31T04:53:10.826Z,30.48
2017-03-31T04:54:10.352Z,34.25
2017-03-31T04:55:08.813Z,33.77
2017-03-31T04:56:08.088Z,33.22
2017-03-31T04:57:06.551Z,37.17
2017-03-31T04:58:05.075Z,40.55
2017-03-31T04:59:03.553Z,34.62
2017-03-31T05:00:02.441Z,35.93
2017-03-31T05:01:01.681Z,48.18
2017-03-31T05:02:00.902Z,41.97
2017-03-31T05:02:59.395Z,36.63
2017-03-31T05:03:58.610Z,43.45
2017-03-31T05:04:57.827Z,38.33
2017-03-31T05:05:57.447Z,37.60
2017-03-31T05:06:56.166Z,41.57
2017-03-31T05:07:54.730Z,35.40
2017-03-31T05:08:54.064Z,32.47
2017-03-31T05:09:52.536Z,41.68
2017-03-31T05:10:51.829Z,32.08
2017-03-31T05:11:50.625Z,41.42
2017-03-31T05:12:49.869Z,41.75
2017-03-31T05:13:48.346Z,41.08
2017-03-31T05:14:46.879Z,30.52
2017-03-31T05:15:45.447Z,41.57
2017-03-31T05:16:43.934Z,43.92
2017-03-31T05:17:42.796Z,38.53
2017-03-31T05:18:41.264Z,37.93
2017-03-31T05:19:39.737Z,39.03
2017-03-31T05:20:38.969Z,39.32
2017-03-31T05:21:37.500Z,30.38
2017-03-31T05:22:36.789Z,33.12
2017-03-31T05:23:36.345Z,34.35
2017-03-31T05:24:35.724Z,37.73
2017-03-31T05:25:35.057Z,44.68
2017-03-31T05:26:34.301Z,37.40
2017-03-31T05:27:33.543Z,38.32
2017-03-31T05:28:32.804Z,39.98
2017-03-31T05:29:31.567Z,32.38
2017-03-31T05:30:30.810Z,37.65
2017-03-31T05:31:29.451Z,37.98
2017-03-31T05:32:28.068Z,38.02
2017-03-31T05:33:27.353Z,31.25
2017-03-31T05:34:26.636Z,40.53
2017-03-31T05:35:25.551Z,37.80
2017-03-31T05:36:24.801Z,34.50
2017-03-31T05:37:23.329Z,33.13
2017-03-31T05:38:22.584Z,38.87
2017-03-31T05:39:21.859Z,33.63
2017-03-31T05:40:21.096Z,25.27
2017-03-31T05:41:19.886Z,28.28
2017-03-31T05:42:19.183Z,36.02
2017-03-31T05:43:18.442Z,29.75
2017-03-31T05:44:16.934Z,32.05
2017-03-31T05:45:15.455Z,33.05
2017-03-31T05:46:13.964Z,35.47
2017-03-31T05:47:13.535Z,34.03
2017-03-31T05:48:11.997Z,33.22
2017-03-31T05:49:11.234Z,28.15
2017-03-31T05:50:10.491Z,29.47
2017-03-31T05:51:08.969Z,32.80
2017-03-31T05:52:08.217Z,38.02
2017-03-31T05:53:07.083Z,33.90
2017-03-31T05:54:05.627Z,31.07
2017-03-31T05:55:04.133Z,32.17
2017-03-31T05:56:03.384Z,27.77
2017-03-31T05:57:01.951Z,27.87
2017-03-31T05:58:00.441Z,32.93
2017-03-31T05:58:59.322Z,25.18
2017-03-31T05:59:57.866Z,26.63
2017-03-31T06:00:56.345Z,30.57
2017-03-31T06:01:55.611Z,35.65
2017-03-31T06:02:54.256Z,28.00
2017-03-31T06:03:52.776Z,34.12
2017-03-31T06:04:51.618Z,29.58
2017-03-31T06:05:51.041Z,33.88
2017-03-31T06:06:49.585Z,29.87
2017-03-31T06:07:48.117Z,32.83
2017-03-31T06:08:47.385Z,29.53
2017-03-31T06:09:46.617Z,32.35
2017-03-31T06:10:45.389Z,27.50
2017-03-31T06:11:43.860Z,30.60
2017-03-31T06:12:43.100Z,33.55
2017-03-31T06:13:42.392Z,32.80
2017-03-31T06:14:40.848Z,28.68
2017-03-31T06:15:39.501Z,33.77
2017-03-31T06:16:39.035Z,30.75
2017-03-31T06:17:37.569Z,29.37
2017-03-31T06:18:36.040Z,27.02
2017-03-31T06:19:35.108Z,28.45
2017-03-31T06:20:35.211Z,29.87
2017-03-31T06:21:34.464Z,31.72
2017-03-31T06:22:33.383Z,28.63
2017-03-31T06:23:31.891Z,29.05
2017-03-31T06:24:30.590Z,27.45
2017-03-31T06:25:29.050Z,27.20
2017-03-31T06:26:27.521Z,30.03
2017-03-31T06:27:26.980Z,28.75
2017-03-31T06:28:25.841Z,30.03
2017-03-31T06:29:25.092Z,24.88
2017-03-31T06:30:24.384Z,28.37
2017-03-31T06:31:22.908Z,25.72
2017-03-31T06:32:22.182Z,22.25
2017-03-31T06:33:20.650Z,26.78
2017-03-31T06:34:19.474Z,26.93
2017-03-31T06:35:17.953Z,26.75
2017-03-31T06:36:16.456Z,25.72
2017-03-31T06:37:14.925Z,23.17
2017-03-31T06:38:13.447Z,21.78
2017-03-31T06:39:12.753Z,24.72
2017-03-31T06:40:12.341Z,27.35
2017-03-31T06:41:11.643Z,24.70
2017-03-31T06:42:10.889Z,22.32
2017-03-31T06:43:09.464Z,24.03
2017-03-31T06:44:07.965Z,25.45
2017-03-31T06:45:07.240Z,26.12
2017-03-31T06:46:06.088Z,25.97
2017-03-31T06:47:05.321Z,25.88
2017-03-31T06:48:04.595Z,25.18
2017-03-31T06:49:03.085Z,22.28
2017-03-31T06:50:03.556Z,23.42
2017-03-31T06:51:02.050Z,21.07
2017-03-31T06:52:01.591Z,21.67
2017-03-31T06:53:00.072Z,23.37
2017-03-31T06:53:58.788Z,23.82
2017-03-31T06:54:58.048Z,25.02
2017-03-31T06:55:57.284Z,22.88
2017-03-31T06:56:55.762Z,21.28
2017-03-31T06:57:54.529Z,23.45
2017-03-31T06:58:53.765Z,22.83
2017-03-31T06:59:53.001Z,22.32
2017-03-31T07:00:51.461Z,21.13
2017-03-31T07:01:50.700Z,22.72
2017-03-31T07:02:59.279Z,22.83
2017-03-31T07:03:58.782Z,21.17
2017-03-31T07:04:58.041Z,23.50
2017-03-31T07:05:57.466Z,19.13
2017-03-31T07:06:55.944Z,19.58
2017-03-31T07:07:54.505Z,20.72
2017-03-31T07:08:53.405Z,21.02
2017-03-31T07:09:52.652Z,22.78
2017-03-31T07:10:51.905Z,21.92
2017-03-31T07:11:50.417Z,20.50
2017-03-31T07:12:48.927Z,18.10
2017-03-31T07:13:47.411Z,18.08
2017-03-31T07:14:46.241Z,20.42
2017-03-31T07:15:44.733Z,19.10
2017-03-31T07:16:43.218Z,17.53
2017-03-31T07:17:42.475Z,19.43
2017-03-31T07:18:40.955Z,19.02
2017-03-31T07:19:40.216Z,18.25
2017-03-31T07:20:39.093Z,19.48
2017-03-31T07:21:37.584Z,20.00
2017-03-31T07:22:37.104Z,20.00
2017-03-31T07:23:36.340Z,17.87
2017-03-31T07:24:35.573Z,20.28
2017-03-31T07:25:34.109Z,19.85
2017-03-31T07:26:33.709Z,17.20
2017-03-31T07:27:32.950Z,20.42
2017-03-31T07:28:31.471Z,17.65
2017-03-31T07:29:30.015Z,21.05
2017-03-31T07:30:29.257Z,19.25
2017-03-31T07:31:27.783Z,18.20
2017-03-31T07:32:26.651Z,18.88
2017-03-31T07:33:25.916Z,19.03
2017-03-31T07:34:24.412Z,19.97
2017-03-31T07:35:22.945Z,18.15
2017-03-31T07:36:21.441Z,18.63
2017-03-31T07:37:20.701Z,18.45
2017-03-31T07:38:20.253Z,16.87
2017-03-31T07:39:18.712Z,17.68
2017-03-31T07:40:18.369Z,17.58
2017-03-31T07:41:17.627Z,16.52
2017-03-31T07:42:16.104Z,18.35
2017-03-31T07:43:15.359Z,15.15
2017-03-31T07:44:14.151Z,18.60
2017-03-31T07:45:13.423Z,18.98
2017-03-31T07:46:11.913Z,17.13
2017-03-31T07:47:11.173Z,18.47
2017-03-31T07:48:09.642Z,17.17
2017-03-31T07:49:08.885Z,18.88
2017-03-31T07:50:07.759Z,17.10
2017-03-31T07:51:07.050Z,17.45
2017-03-31T07:52:05.549Z,16.90
2017-03-31T07:53:04.020Z,17.67
2017-03-31T07:54:02.519Z,17.73
2017-03-31T07:55:01.003Z,17.92
2017-03-31T07:55:59.790Z,16.02
2017-03-31T07:56:58.368Z,16.60
2017-03-31T07:57:56.918Z,14.62
2017-03-31T07:58:55.435Z,17.12
2017-03-31T07:59:54.709Z,17.78
2017-03-31T08:00:53.941Z,15.47
2017-03-31T08:01:52.729Z,14.55
2017-03-31T08:02:51.223Z,15.00
2017-03-31T08:03:49.694Z,12.90
2017-03-31T08:04:48.956Z,14.40
2017-03-31T08:05:48.197Z,14.00
2017-03-31T08:06:46.680Z,20.08
2017-03-31T08:07:46.273Z,20.75
2017-03-31T08:08:44.784Z,13.18
2017-03-31T08:09:43.269Z,14.08
2017-03-31T08:10:42.519Z,14.57
2017-03-31T08:11:41.017Z,14.27
2017-03-31T08:12:40.342Z,14.78
2017-03-31T08:13:40.061Z,14.77
2017-03-31T08:14:39.329Z,12.82
2017-03-31T08:15:37.848Z,12.75
2017-03-31T08:16:36.324Z,11.70
2017-03-31T08:17:34.883Z,14.62
2017-03-31T08:18:33.521Z,14.87
2017-03-31T08:19:32.272Z,13.72
2017-03-31T08:20:30.738Z,14.98
2017-03-31T08:21:29.210Z,13.73
2017-03-31T08:22:29.013Z,13.83
2017-03-31T08:23:27.485Z,15.45
2017-03-31T08:24:25.990Z,13.53
2017-03-31T08:25:24.764Z,13.03
2017-03-31T08:26:23.228Z,14.05
2017-03-31T08:27:21.704Z,13.12
2017-03-31T08:28:20.211Z,12.87
2017-03-31T08:29:18.720Z,13.07
2017-03-31T08:30:17.208Z,14.15
2017-03-31T08:31:15.988Z,14.97
2017-03-31T08:32:14.468Z,14.67
2017-03-31T08:33:13.703Z,14.05
2017-03-31T08:34:12.245Z,12.72
2017-03-31T08:35:11.502Z,12.47
2017-03-31T08:36:09.969Z,12.85
2017-03-31T08:37:08.716Z,12.88
2017-03-31T08:38:07.210Z,12.83
2017-03-31T08:39:05.681Z,11.88
2017-03-31T08:40:05.061Z,14.05
2017-03-31T08:41:04.440Z,12.28
2017-03-31T08:42:02.936Z,13.00
2017-03-31T08:43:02.483Z,13.05
2017-03-31T08:44:01.009Z,11.07
2017-03-31T08:44:59.510Z,11.58
2017-03-31T08:45:57.997Z,13.18
2017-03-31T08:46:56.501Z,11.73
2017-03-31T08:47:55.741Z,12.68
2017-03-31T08:48:54.593Z,12.00
2017-03-31T08:49:53.853Z,10.73
2017-03-31T08:50:52.327Z,13.00
2017-03-31T08:51:50.954Z,11.83
2017-03-31T08:52:50.281Z,11.85
2017-03-31T08:53:48.793Z,13.90
2017-03-31T08:54:47.541Z,12.43
2017-03-31T08:55:46.027Z,10.52
2017-03-31T08:56:44.509Z,11.72
2017-03-31T08:57:43.773Z,10.97
2017-03-31T08:58:42.253Z,12.25
2017-03-31T08:59:40.716Z,11.63
2017-03-31T09:00:40.359Z,11.52
2017-03-31T09:01:38.844Z,10.02
2017-03-31T09:02:37.308Z,11.00
2017-03-31T09:03:35.828Z,10.18
2017-03-31T09:04:35.204Z,11.23
2017-03-31T09:05:34.454Z,11.27
2017-03-31T09:06:33.976Z,10.40
2017-03-31T09:07:33.197Z,10.38
2017-03-31T09:08:31.680Z,10.37
2017-03-31T09:09:30.255Z,9.30
2017-03-31T09:10:28.730Z,9.67
2017-03-31T09:11:27.229Z,9.98
2017-03-31T09:12:26.775Z,11.65
2017-03-31T09:13:25.980Z,9.93
2017-03-31T09:14:24.452Z,9.63
2017-03-31T09:15:23.862Z,8.62
2017-03-31T09:16:23.114Z,9.07
2017-03-31T09:17:21.586Z,9.47
2017-03-31T09:18:21.124Z,8.82
2017-03-31T09:19:19.571Z,9.83
2017-03-31T09:20:18.061Z,8.82
2017-03-31T09:21:16.550Z,9.87
2017-03-31T09:22:15.063Z,9.03
2017-03-31T09:23:14.320Z,10.10
2017-03-31T09:24:13.858Z,9.98
2017-03-31T09:25:12.333Z,9.05
2017-03-31T09:26:10.835Z,9.70
2017-03-31T09:27:10.102Z,11.33
2017-03-31T09:28:08.630Z,11.65
2017-03-31T09:29:07.223Z,11.22
2017-03-31T09:30:05.996Z,8.85
2017-03-31T09:31:04.481Z,9.70
2017-03-31T09:32:03.016Z,10.10
2017-03-31T09:33:01.490Z,11.67
2017-03-31T09:33:59.976Z,8.10
2017-03-31T09:34:59.213Z,9.78
2017-03-31T09:35:57.964Z,9.40
2017-03-31T09:36:57.280Z,9.08
2017-03-31T09:37:55.735Z,7.80
2017-03-31T09:38:54.213Z,8.93
2017-03-31T09:39:52.760Z,8.80
2017-03-31T09:40:51.352Z,6.53
2017-03-31T09:41:50.331Z,7.30
2017-03-31T09:42:48.791Z,8.68
2017-03-31T09:43:48.010Z,7.47
2017-03-31T09:44:47.236Z,7.38
2017-03-31T09:45:45.716Z,6.80
2017-03-31T09:46:44.180Z,9.22
2017-03-31T09:47:42.948Z,7.65
2017-03-31T09:48:41.421Z,8.50
2017-03-31T09:49:39.912Z,7.32
2017-03-31T09:50:38.418Z,7.00
2017-03-31T09:51:37.663Z,7.52
2017-03-31T09:52:36.137Z,7.75
2017-03-31T09:53:34.968Z,7.15
2017-03-31T09:54:33.431Z,6.78
2017-03-31T09:55:31.889Z,6.62
2017-03-31T09:56:30.344Z,6.22
2017-03-31T09:57:28.832Z,5.95
2017-03-31T09:58:27.321Z,6.23
2017-03-31T09:59:26.844Z,5.43
2017-03-31T10:00:26.110Z,6.88
2017-03-31T10:01:24.622Z,5.12
2017-03-31T10:02:23.173Z,5.17
2017-03-31T10:03:21.643Z,5.83
2017-03-31T10:04:20.138Z,5.45
2017-03-31T10:05:19.008Z,5.93
2017-03-31T10:06:17.465Z,4.98
2017-03-31T10:07:15.923Z,6.05
2017-03-31T10:08:14.408Z,6.88
2017-03-31T10:09:12.909Z,5.10
2017-03-31T10:10:11.417Z,5.17
2017-03-31T10:11:10.308Z,5.37
2017-03-31T10:12:08.932Z,5.25
2017-03-31T10:13:08.505Z,4.83
2017-03-31T10:14:06.989Z,4.67
2017-03-31T10:15:06.313Z,5.43
2017-03-31T10:16:04.769Z,5.77
2017-03-31T10:17:03.541Z,6.90
2017-03-31T10:18:02.045Z,4.33
2017-03-31T10:19:00.661Z,5.53
2017-03-31T10:19:59.132Z,4.40
2017-03-31T10:20:57.638Z,4.02
2017-03-31T10:21:56.156Z,5.82
2017-03-31T10:22:54.964Z,4.25
2017-03-31T10:23:53.440Z,4.68
2017-03-31T10:24:51.889Z,3.72
2017-03-31T10:25:50.385Z,4.85
2017-03-31T10:26:49.624Z,3.72
2017-03-31T10:27:48.857Z,3.27
2017-03-31T10:28:47.695Z,3.70
2017-03-31T10:29:46.157Z,3.48
2017-03-31T10:30:44.633Z,3.80
2017-03-31T10:31:43.852Z,3.32
2017-03-31T10:32:43.084Z,3.38
2017-03-31T10:33:41.555Z,3.68
2017-03-31T10:34:40.344Z,3.70
2017-03-31T10:35:38.884Z,4.50
2017-03-31T10:36:37.345Z,3.75
2017-03-31T10:37:35.817Z,4.77
2017-03-31T10:38:34.343Z,4.25
2017-03-31T10:39:33.589Z,4.23
2017-03-31T10:40:32.442Z,4.15
2017-03-31T10:41:30.928Z,4.00
2017-03-31T10:42:29.384Z,3.77
2017-03-31T10:43:28.672Z,3.32
2017-03-31T10:44:27.184Z,3.08
2017-03-31T10:45:25.788Z,4.02
2017-03-31T10:46:24.588Z,4.15
2017-03-31T10:47:23.078Z,4.55
2017-03-31T10:48:21.565Z,3.68
2017-03-31T10:49:20.032Z,3.57
2017-03-31T10:50:18.540Z,3.05
2017-03-31T10:51:17.028Z,4.23
2017-03-31T10:52:16.677Z,3.62
2017-03-31T10:53:21.905Z,3.57
2017-03-31T10:54:20.396Z,4.50
2017-03-31T10:55:18.880Z,4.22
2017-03-31T10:56:18.136Z,3.68
2017-03-31T10:57:16.980Z,3.30
2017-03-31T10:58:15.528Z,3.33
2017-03-31T10:59:14.000Z,3.05
2017-03-31T11:00:12.573Z,3.30
2017-03-31T11:01:11.066Z,3.37
2017-03-31T11:02:09.528Z,3.45
2017-03-31T11:03:11.330Z,3.58
2017-03-31T11:04:10.717Z,2.93
2017-03-31T11:05:09.213Z,3.03
2017-03-31T11:06:07.701Z,2.83
2017-03-31T11:07:06.161Z,3.85
2017-03-31T11:08:04.658Z,3.00
2017-03-31T11:09:03.892Z,3.05
2017-03-31T11:10:02.405Z,3.10
2017-03-31T11:11:01.657Z,2.90
2017-03-31T11:12:00.124Z,4.48
2017-03-31T11:12:59.566Z,3.50
2017-03-31T11:13:58.032Z,3.52
2017-03-31T11:14:57.646Z,4.02
2017-03-31T11:15:56.151Z,3.23
2017-03-31T11:16:54.633Z,4.62
2017-03-31T11:17:53.849Z,3.37
2017-03-31T11:18:52.317Z,2.57
2017-03-31T11:19:51.641Z,3.33
2017-03-31T11:20:50.425Z,3.55
2017-03-31T11:21:49.677Z,2.57
2017-03-31T11:22:48.164Z,2.67
2017-03-31T11:23:46.664Z,3.33
2017-03-31T11:24:46.084Z,3.13
2017-03-31T11:25:44.636Z,3.28
2017-03-31T11:26:43.449Z,4.03
2017-03-31T11:27:42.698Z,4.65
2017-03-31T11:28:41.176Z,3.55
2017-03-31T11:29:40.303Z,2.92
2017-03-31T11:30:38.770Z,3.93
2017-03-31T11:31:38.086Z,3.10
2017-03-31T11:32:37.103Z,3.88
2017-03-31T11:33:35.589Z,3.43
2017-03-31T11:34:34.863Z,3.88
2017-03-31T11:35:33.343Z,2.70
2017-03-31T11:36:32.570Z,4.32
2017-03-31T11:37:31.073Z,2.90
2017-03-31T11:38:29.920Z,3.43
2017-03-31T11:39:28.401Z,3.15
2017-03-31T11:40:27.113Z,4.25
2017-03-31T11:41:26.345Z,3.42
2017-03-31T11:42:24.828Z,3.03
2017-03-31T11:43:23.349Z,3.03
2017-03-31T11:44:22.149Z,50.93
2017-03-31T11:45:20.932Z,3.78
2017-03-31T11:46:19.398Z,4.10
2017-03-31T11:47:18.629Z,3.67
2017-03-31T11:48:17.227Z,3.73
2017-03-31T11:49:15.761Z,3.68
2017-03-31T11:50:15.300Z,3.77
2017-03-31T11:51:13.799Z,2.95
2017-03-31T11:52:13.040Z,3.37
2017-03-31T11:53:11.492Z,2.70
2017-03-31T11:54:10.737Z,5.13
2017-03-31T11:55:09.962Z,5.97
2017-03-31T11:56:09.557Z,3.43
2017-03-31T11:57:08.008Z,3.92
2017-03-31T11:58:06.500Z,4.68
2017-03-31T11:59:05.712Z,3.50
2017-03-31T12:00:04.943Z,3.75
2017-03-31T12:01:03.525Z,4.48
2017-03-31T12:02:02.392Z,3.15
2017-03-31T12:03:01.625Z,5.08
2017-03-31T12:04:00.093Z,4.02
2017-03-31T12:04:59.362Z,3.82
2017-03-31T12:05:57.883Z,3.33
2017-03-31T12:06:56.344Z,3.23
2017-03-31T12:07:55.116Z,3.85
2017-03-31T12:08:53.573Z,3.87
2017-03-31T12:09:52.101Z,3.75
2017-03-31T12:10:51.393Z,3.85
2017-03-31T12:11:50.619Z,4.85
2017-03-31T12:12:50.069Z,3.92
2017-03-31T12:13:49.796Z,3.98
2017-03-31T12:14:48.338Z,3.42
2017-03-31T12:15:46.807Z,3.53
2017-03-31T12:16:45.285Z,4.12
2017-03-31T12:17:43.766Z,4.75
2017-03-31T12:18:43.084Z,3.43
2017-03-31T12:19:41.932Z,4.60
2017-03-31T12:20:40.400Z,4.10
2017-03-31T12:21:38.921Z,3.80
2017-03-31T12:22:37.426Z,4.02
2017-03-31T12:23:35.930Z,4.63
2017-03-31T12:24:35.229Z,3.67
2017-03-31T12:25:34.897Z,4.77
2017-03-31T12:26:33.352Z,4.23
2017-03-31T12:27:31.812Z,4.10
2017-03-31T12:28:30.316Z,4.43
2017-03-31T12:29:29.553Z,5.42
2017-03-31T12:30:28.029Z,4.57
2017-03-31T12:31:26.792Z,4.25
2017-03-31T12:32:25.285Z,5.02
2017-03-31T12:33:24.535Z,4.32
2017-03-31T12:34:23.011Z,6.37
2017-03-31T12:35:21.508Z,4.80
2017-03-31T12:36:20.873Z,6.83
2017-03-31T12:37:19.834Z,5.22
2017-03-31T12:38:19.087Z,5.28
2017-03-31T12:39:17.594Z,5.73
2017-03-31T12:40:16.073Z,5.08
2017-03-31T12:41:15.380Z,4.67
2017-03-31T12:42:13.841Z,4.67
2017-03-31T12:43:12.632Z,4.50
2017-03-31T12:44:11.130Z,4.60
2017-03-31T12:45:09.630Z,6.30